Time;durP1;ratioP1;P1;durP2;ratioP2;P2;SDS_P1;SDS_P2;PMS_P1;PMS_P2;Temp;Humidity;BMP_temperature;BMP_pressure;BME280_temperature;BME280_humidity;BME280_pressure;Samples;Min_cycle;Max_cycle;Signal;HPM_P1;HPM_P2
2023/10/15 00:00:50;;;;;;;3.47;1.00;;;;;;;;;;5053245;28;20041;-58
2023/10/15 00:03:16;;;;;;;3.65;0.95;;;;;;;;;;5052956;28;20177;-58
2023/10/15 00:05:42;;;;;;;2.00;1.00;;;;;;;;;;5053543;28;20021;-58
2023/10/15 00:08:09;;;;;;;4.90;1.20;;;;;;;;;;5053538;28;20036;-58
2023/10/15 00:10:36;;;;;;;3.15;1.35;;;;;;;;;;5053039;28;20102;-58
2023/10/15 00:13:02;;;;;;;4.80;1.08;;;;;;;;;;5053487;28;20033;-58
2023/10/15 00:15:29;;;;;;;2.40;1.48;;;;;;;;;;5053257;28;20036;-58
2023/10/15 00:18:02;;;;;;;4.00;0.80;;;;;;;;;;5052899;28;20036;-58
2023/10/15 00:20:35;;;;;;;1.15;0.57;;;;;;;;;;5053435;28;20125;-58
2023/10/15 00:23:04;;;;;;;5.93;1.65;;;;;;;;;;5055883;28;20033;-58
2023/10/15 00:25:34;;;;;;;2.42;1.02;;;;;;;;;;5056662;28;20036;-58
2023/10/15 00:28:01;;;;;;;3.67;1.40;;;;;;;;;;5057210;28;20029;-58
2023/10/15 00:30:33;;;;;;;3.30;1.10;;;;;;;;;;5056882;28;20089;-58
2023/10/15 00:33:03;;;;;;;1.88;0.73;;;;;;;;;;5056887;28;20025;-58
2023/10/15 00:35:33;;;;;;;1.23;0.80;;;;;;;;;;5056526;28;20183;-58
2023/10/15 00:37:59;;;;;;;5.63;1.30;;;;;;;;;;5056392;28;20771;-58
2023/10/15 00:40:25;;;;;;;3.80;1.20;;;;;;;;;;5056722;28;20028;-58
2023/10/15 00:42:51;;;;;;;3.85;1.75;;;;;;;;;;5056559;28;20116;-58
2023/10/15 00:45:18;;;;;;;1.25;0.57;;;;;;;;;;5056246;28;20025;-58
2023/10/15 00:47:45;;;;;;;3.17;0.90;;;;;;;;;;5056234;28;20405;-58
2023/10/15 00:50:14;;;;;;;7.30;1.40;;;;;;;;;;5056547;28;20028;-58
2023/10/15 00:52:43;;;;;;;1.88;0.68;;;;;;;;;;5056148;28;20017;-58
2023/10/15 00:55:16;;;;;;;0.80;0.55;;;;;;;;;;5056352;28;20013;-58
2023/10/15 00:57:42;;;;;;;1.48;0.75;;;;;;;;;;5056906;28;20442;-58
2023/10/15 01:00:39;;;;;;;1.40;0.73;;;;;;;;;;5056448;28;20124;-58
2023/10/15 01:02:58;;;;;;;2.20;0.70;;;;;;;;;;5055819;28;20029;-58
2023/10/15 01:05:28;;;;;;;2.80;1.42;;;;;;;;;;5055900;28;20033;-58
2023/10/15 01:08:02;;;;;;;2.15;1.10;;;;;;;;;;5056115;28;20033;-58
2023/10/15 01:10:39;;;;;;;2.10;0.80;;;;;;;;;;5055844;28;20075;-58
2023/10/15 01:13:17;;;;;;;2.13;1.00;;;;;;;;;;5056284;28;20029;-58
2023/10/15 01:15:43;;;;;;;2.63;1.17;;;;;;;;;;5056463;28;20071;-58
2023/10/15 01:18:10;;;;;;;4.40;1.20;;;;;;;;;;5055826;28;20025;-58
2023/10/15 01:20:42;;;;;;;4.53;1.17;;;;;;;;;;5056070;28;20430;-58
2023/10/15 01:23:08;;;;;;;1.70;0.85;;;;;;;;;;5056080;28;20029;-58
2023/10/15 01:25:34;;;;;;;3.85;1.20;;;;;;;;;;5055796;28;20454;-58
2023/10/15 01:28:00;;;;;;;2.28;0.93;;;;;;;;;;5056035;28;20017;-58
2023/10/15 01:30:27;;;;;;;2.92;0.98;;;;;;;;;;5056062;28;20481;-58
2023/10/15 01:32:54;;;;;;;2.88;1.13;;;;;;;;;;5055898;28;20021;-58
2023/10/15 01:35:20;;;;;;;3.50;0.68;;;;;;;;;;5055057;28;20102;-58
2023/10/15 01:38:10;;;;;;;2.08;1.05;;;;;;;;;;5055764;28;20052;-58
2023/10/15 01:40:37;;;;;;;1.58;0.80;;;;;;;;;;5055176;28;20032;-58
2023/10/15 01:43:07;;;;;;;3.90;1.35;;;;;;;;;;5055254;28;20068;-58
2023/10/15 01:45:37;;;;;;;3.87;1.50;;;;;;;;;;5055152;28;20033;-58
2023/10/15 01:48:14;;;;;;;;;;;;;;;;;;5055430;28;20459;-58
2023/10/15 01:50:49;;;;;;;1.42;0.90;;;;;;;;;;5055621;28;19959;-58
2023/10/15 01:53:15;;;;;;;1.67;0.90;;;;;;;;;;5055484;28;20032;-58
2023/10/15 01:55:53;;;;;;;3.85;1.60;;;;;;;;;;5055187;28;20033;-58
2023/10/15 01:58:24;;;;;;;2.40;1.13;;;;;;;;;;5055227;28;20104;-58
2023/10/15 02:00:50;;;;;;;;;;;;;;;;;;5055508;28;20045;-58
2023/10/15 02:03:16;;;;;;;1.25;0.68;;;;;;;;;;5054726;28;19912;-58
2023/10/15 02:05:42;;;;;;;2.15;1.23;;;;;;;;;;5054768;28;20025;-58
2023/10/15 02:08:13;;;;;;;2.63;1.17;;;;;;;;;;5054633;28;20024;-58
2023/10/15 02:10:39;;;;;;;3.80;1.30;;;;;;;;;;5054940;28;20107;-58
2023/10/15 02:13:08;;;;;;;3.97;1.63;;;;;;;;;;5054602;28;20025;-58
2023/10/15 02:15:39;;;;;;;2.00;1.27;;;;;;;;;;5054533;28;20021;-58
2023/10/15 02:18:05;;;;;;;;;;;;;;;;;;5054892;28;20025;-58
2023/10/15 02:20:44;;;;;;;1.17;0.73;;;;;;;;;;5054730;28;19913;-58
2023/10/15 02:23:10;;;;;;;2.38;1.17;;;;;;;;;;5054692;28;20116;-58
2023/10/15 02:25:44;;;;;;;3.72;1.55;;;;;;;;;;5054869;28;20025;-58
2023/10/15 02:28:10;;;;;;;2.85;0.90;;;;;;;;;;5055136;28;20029;-58
2023/10/15 02:30:40;;;;;;;1.50;0.88;;;;;;;;;;5054129;28;20031;-58
2023/10/15 02:33:06;;;;;;;6.90;1.42;;;;;;;;;;5054184;28;20025;-58
2023/10/15 02:35:39;;;;;;;2.60;0.85;;;;;;;;;;5055307;28;20344;-58
2023/10/15 02:38:10;;;;;;;2.10;0.68;;;;;;;;;;5054047;28;20025;-58
2023/10/15 02:40:56;;;;;;;2.17;1.02;;;;;;;;;;5054657;28;20108;-58
2023/10/15 02:43:26;;;;;;;3.42;0.93;;;;;;;;;;5054930;28;20069;-58
2023/10/15 02:45:53;;;;;;;;;;;;;;;;;;5052995;28;20048;-58
2023/10/15 02:48:25;;;;;;;2.08;0.68;;;;;;;;;;5054047;28;20008;-58
2023/10/15 02:53:26;;;;;;;2.58;1.05;;;;;;;;;;5054311;28;20455;-58
2023/10/15 02:55:57;;;;;;;6.07;0.95;;;;;;;;;;5054138;28;20079;-58
2023/10/15 02:58:27;;;;;;;2.38;0.80;;;;;;;;;;5053887;28;20059;-58
2023/10/15 03:00:59;;;;;;;1.63;0.73;;;;;;;;;;5054010;28;20045;-58
2023/10/15 03:03:32;;;;;;;2.80;0.80;;;;;;;;;;5053729;28;20049;-58
2023/10/15 03:05:58;;;;;;;2.13;1.00;;;;;;;;;;5054240;28;20031;-58
2023/10/15 03:08:31;;;;;;;2.25;0.70;;;;;;;;;;5054440;28;20108;-58
2023/10/15 03:11:01;;;;;;;2.53;0.82;;;;;;;;;;5053658;28;20029;-58
2023/10/15 03:13:27;;;;;;;1.30;0.70;;;;;;;;;;5053943;28;20036;-58
2023/10/15 03:15:53;;;;;;;4.65;0.88;;;;;;;;;;5052267;28;20025;-57
2023/10/15 03:18:23;;;;;;;2.67;1.02;;;;;;;;;;5053828;28;20387;-58
2023/10/15 03:20:49;;;;;;;1.40;0.77;;;;;;;;;;5054049;28;20093;-58
2023/10/15 03:23:19;;;;;;;2.80;0.70;;;;;;;;;;5053571;28;20025;-58
2023/10/15 03:25:57;;;;;;;4.15;0.75;;;;;;;;;;5053976;28;20036;-58
2023/10/15 03:28:23;;;;;;;4.25;0.82;;;;;;;;;;5053970;28;20086;-58
2023/10/15 03:30:54;;;;;;;4.10;1.05;;;;;;;;;;5054189;28;20098;-58
2023/10/15 03:33:22;;;;;;;1.17;0.70;;;;;;;;;;5054114;28;20394;-58
2023/10/15 03:35:54;;;;;;;1.70;0.70;;;;;;;;;;5054244;28;20051;-58
2023/10/15 03:38:23;;;;;;;4.30;0.85;;;;;;;;;;5053409;28;20036;-58
2023/10/15 03:41:09;;;;;;;1.35;0.63;;;;;;;;;;5054114;28;20029;-58
2023/10/15 03:43:35;;;;;;;4.38;1.30;;;;;;;;;;5053436;28;20017;-58
2023/10/15 03:46:16;;;;;;;3.42;0.93;;;;;;;;;;5053216;28;20371;-58
2023/10/15 03:48:47;;;;;;;2.65;1.00;;;;;;;;;;5053845;28;20056;-58
2023/10/15 03:51:16;;;;;;;2.00;0.80;;;;;;;;;;5053758;28;20036;-58
2023/10/15 03:53:43;;;;;;;2.15;0.70;;;;;;;;;;5052832;28;20097;-58
2023/10/15 03:56:10;;;;;;;3.28;0.90;;;;;;;;;;5053216;28;20027;-58
2023/10/15 03:58:36;;;;;;;3.72;1.08;;;;;;;;;;5057640;28;20032;-58
2023/10/15 04:03:35;;;;;;;1.63;0.80;;;;;;;;;;5056888;28;20033;-58
2023/10/15 04:06:05;;;;;;;2.15;1.33;;;;;;;;;;5056600;28;20462;-58
2023/10/15 04:08:32;;;;;;;1.90;1.00;;;;;;;;;;5057215;28;20052;-58
2023/10/15 04:10:58;;;;;;;2.25;1.00;;;;;;;;;;5057254;28;20032;-58
2023/10/15 04:13:27;;;;;;;3.42;1.25;;;;;;;;;;5057398;28;20320;-58
2023/10/15 04:15:54;;;;;;;2.30;1.30;;;;;;;;;;5056714;28;20505;-58
2023/10/15 04:18:23;;;;;;;5.13;1.88;;;;;;;;;;5057145;28;20025;-58
2023/10/15 04:20:49;;;;;;;2.92;0.88;;;;;;;;;;5056958;28;20485;-58
2023/10/15 04:23:30;;;;;;;4.00;1.58;;;;;;;;;;5056766;28;20049;-58
2023/10/15 04:25:57;;;;;;;2.55;0.88;;;;;;;;;;5057204;28;20033;-58
2023/10/15 04:28:25;;;;;;;2.33;0.75;;;;;;;;;;5056584;28;20378;-58
2023/10/15 04:30:51;;;;;;;2.28;0.65;;;;;;;;;;5056547;28;20482;-58
2023/10/15 04:33:20;;;;;;;3.35;1.05;;;;;;;;;;5056513;28;20458;-58
2023/10/15 04:35:49;;;;;;;1.67;0.70;;;;;;;;;;5057567;28;20152;-58
2023/10/15 04:38:30;;;;;;;3.40;1.38;;;;;;;;;;5056134;28;20029;-58
2023/10/15 04:43:25;;;;;;;1.55;0.93;;;;;;;;;;5056411;28;20029;-58
2023/10/15 04:45:54;;;;;;;5.55;1.23;;;;;;;;;;5056785;28;20518;-58
2023/10/15 04:48:26;;;;;;;3.08;0.90;;;;;;;;;;5056951;28;20040;-58
2023/10/15 04:50:52;;;;;;;1.25;0.50;;;;;;;;;;5057021;28;20103;-58
2023/10/15 04:55:51;;;;;;;2.63;1.05;;;;;;;;;;5056155;28;20033;-58
2023/10/15 04:58:18;;;;;;;3.70;1.50;;;;;;;;;;5056084;28;20111;-58
2023/10/15 05:00:46;;;;;;;2.45;0.95;;;;;;;;;;5056137;28;20029;-58
2023/10/15 05:03:12;;;;;;;2.05;0.68;;;;;;;;;;5056300;28;20048;-58
2023/10/15 05:05:38;;;;;;;5.18;0.90;;;;;;;;;;5055955;28;20458;-58
2023/10/15 05:08:10;;;;;;;2.30;1.02;;;;;;;;;;5055564;28;20031;-58
2023/10/15 05:10:37;;;;;;;2.60;1.45;;;;;;;;;;5056481;28;20554;-58
2023/10/15 05:13:03;;;;;;;1.67;0.80;;;;;;;;;;5055881;28;20021;-58
2023/10/15 05:15:29;;;;;;;2.38;1.20;;;;;;;;;;5056547;28;20051;-58
2023/10/15 05:17:55;;;;;;;5.38;1.10;;;;;;;;;;5055805;28;20025;-58
2023/10/15 05:20:21;;;;;;;2.97;1.35;;;;;;;;;;5055927;28;20064;-58
2023/10/15 05:22:47;;;;;;;3.17;1.42;;;;;;;;;;5056249;28;20064;-58
2023/10/15 05:25:20;;;;;;;2.80;0.95;;;;;;;;;;5055863;28;20493;-58
2023/10/15 05:27:47;;;;;;;2.55;1.23;;;;;;;;;;5056161;28;20029;-58
2023/10/15 05:30:15;;;;;;;5.32;1.67;;;;;;;;;;5055904;28;20062;-58
2023/10/15 05:32:42;;;;;;;3.80;1.40;;;;;;;;;;5055695;28;20367;-58
2023/10/15 05:35:08;;;;;;;3.00;1.15;;;;;;;;;;5055536;28;20049;-58
2023/10/15 05:37:39;;;;;;;3.58;1.33;;;;;;;;;;5055646;28;20031;-58
2023/10/15 05:40:06;;;;;;;2.45;1.42;;;;;;;;;;5055868;28;20530;-58
2023/10/15 05:42:32;;;;;;;1.67;0.90;;;;;;;;;;5055014;28;20056;-58
2023/10/15 05:44:58;;;;;;;2.00;1.20;;;;;;;;;;5055282;28;20036;-58
2023/10/15 05:47:24;;;;;;;2.80;1.00;;;;;;;;;;5055127;28;20079;-58
2023/10/15 05:49:50;;;;;;;2.28;1.42;;;;;;;;;;5055537;28;20036;-58
2023/10/15 05:52:16;;;;;;;4.35;1.48;;;;;;;;;;5055401;28;20455;-58
2023/10/15 05:54:42;;;;;;;3.08;1.08;;;;;;;;;;5055113;28;20074;-58
2023/10/15 05:57:10;;;;;;;2.25;1.20;;;;;;;;;;5054929;28;20072;-58
2023/10/15 05:59:36;;;;;;;2.58;1.70;;;;;;;;;;5055769;28;20040;-58
2023/10/15 06:02:02;;;;;;;1.55;0.73;;;;;;;;;;5054814;28;20090;-58
2023/10/15 06:04:28;;;;;;;3.92;1.27;;;;;;;;;;5055093;28;20025;-58
2023/10/15 06:06:55;;;;;;;1.75;1.02;;;;;;;;;;5055299;28;20075;-58
2023/10/15 06:09:22;;;;;;;2.42;1.20;;;;;;;;;;5055351;28;20037;-58
2023/10/15 06:11:48;;;;;;;2.83;1.30;;;;;;;;;;5054544;28;20021;-58
2023/10/15 06:14:14;;;;;;;3.78;1.30;;;;;;;;;;5055512;28;20474;-58
2023/10/15 06:16:41;;;;;;;2.40;1.30;;;;;;;;;;5055116;28;20451;-58
2023/10/15 06:19:09;;;;;;;2.80;0.98;;;;;;;;;;5053747;28;20028;-58
2023/10/15 06:21:35;;;;;;;2.58;1.30;;;;;;;;;;5055097;28;20027;-58
2023/10/15 06:24:01;;;;;;;2.80;1.30;;;;;;;;;;5055113;28;20437;-58
2023/10/15 06:26:28;;;;;;;4.25;1.30;;;;;;;;;;5054691;28;20043;-58
2023/10/15 06:28:54;;;;;;;3.65;1.10;;;;;;;;;;5054885;28;20342;-58
2023/10/15 06:31:20;;;;;;;5.82;1.42;;;;;;;;;;5054330;28;20021;-58
2023/10/15 06:33:46;;;;;;;2.03;1.20;;;;;;;;;;5054060;28;20074;-57
2023/10/15 06:36:11;;;;;;;2.90;1.30;;;;;;;;;;5054682;28;20036;-58
2023/10/15 06:38:37;;;;;;;2.80;1.67;;;;;;;;;;5054455;28;20032;-58
2023/10/15 06:41:04;;;;;;;3.38;1.40;;;;;;;;;;5054645;28;20340;-58
2023/10/15 06:43:30;;;;;;;5.13;1.88;;;;;;;;;;5054003;28;20468;-58
2023/10/15 06:46:05;;;;;;;3.25;1.45;;;;;;;;;;5054388;28;20025;-58
2023/10/15 06:48:30;;;;;;;3.08;1.83;;;;;;;;;;5054419;28;20069;-58
2023/10/15 06:50:56;;;;;;;3.75;1.75;;;;;;;;;;5054878;28;20111;-58
2023/10/15 06:53:23;;;;;;;2.42;1.45;;;;;;;;;;5054438;28;20051;-58
2023/10/15 06:55:51;;;;;;;2.42;1.50;;;;;;;;;;5053931;28;20025;-58
2023/10/15 06:58:17;;;;;;;7.80;2.13;;;;;;;;;;5053550;28;20060;-58
2023/10/15 07:00:43;;;;;;;5.45;1.85;;;;;;;;;;5053600;28;20064;-58
2023/10/15 07:03:08;;;;;;;5.50;2.20;;;;;;;;;;5053826;28;20092;-58
2023/10/15 07:05:36;;;;;;;4.65;1.80;;;;;;;;;;5053679;28;20025;-58
2023/10/15 07:08:02;;;;;;;7.10;2.00;;;;;;;;;;5054441;28;20028;-58
2023/10/15 07:10:28;;;;;;;3.08;1.35;;;;;;;;;;5053791;28;20489;-58
2023/10/15 07:12:57;;;;;;;3.33;1.48;;;;;;;;;;5054214;28;20029;-58
2023/10/15 07:15:29;;;;;;;3.97;1.73;;;;;;;;;;5053610;28;20157;-58
2023/10/15 07:17:55;;;;;;;2.60;1.67;;;;;;;;;;5053587;28;20067;-58
2023/10/15 07:20:24;;;;;;;5.05;1.85;;;;;;;;;;5053517;28;20044;-58
2023/10/15 07:22:51;;;;;;;3.95;2.13;;;;;;;;;;5053503;28;20467;-58
2023/10/15 07:25:17;;;;;;;4.13;2.53;;;;;;;;;;5054253;28;20028;-58
2023/10/15 07:27:47;;;;;;;5.43;2.33;;;;;;;;;;5054065;28;20162;-58
2023/10/15 07:30:14;;;;;;;;;;;;;;;;;;5054332;28;20036;-58
2023/10/15 07:32:40;;;;;;;4.43;2.13;;;;;;;;;;5054223;28;19940;-58
2023/10/15 07:35:07;;;;;;;11.13;2.10;;;;;;;;;;5053669;28;20048;-58
2023/10/15 07:37:34;;;;;;;5.10;2.15;;;;;;;;;;5053110;28;20033;-58
2023/10/15 07:40:03;;;;;;;4.35;2.28;;;;;;;;;;5054077;28;20041;-58
2023/10/15 07:42:31;;;;;;;6.20;2.42;;;;;;;;;;5053806;28;20355;-58
2023/10/15 07:44:57;;;;;;;4.00;2.75;;;;;;;;;;5053608;28;20021;-58
2023/10/15 07:47:24;;;;;;;4.25;2.70;;;;;;;;;;5053021;28;20032;-58
2023/10/15 07:49:50;;;;;;;5.60;3.13;;;;;;;;;;5053294;28;20041;-58
2023/10/15 07:52:16;;;;;;;4.65;3.00;;;;;;;;;;5052868;28;20071;-58
2023/10/15 07:54:42;;;;;;;7.05;3.10;;;;;;;;;;5053163;28;20104;-58
2023/10/15 07:57:10;;;;;;;4.43;2.25;;;;;;;;;;5053238;28;20021;-58
2023/10/15 07:59:36;;;;;;;3.17;2.70;;;;;;;;;;5053591;28;20041;-58
2023/10/15 08:02:03;;;;;;;4.65;2.25;;;;;;;;;;5053084;28;20032;-58
2023/10/15 08:04:29;;;;;;;7.97;2.97;;;;;;;;;;5053062;28;20036;-58
2023/10/15 08:06:55;;;;;;;3.60;2.00;;;;;;;;;;5053548;28;20128;-58
2023/10/15 08:09:24;;;;;;;3.00;1.85;;;;;;;;;;5053141;28;20074;-58
2023/10/15 08:11:50;;;;;;;2.35;1.38;;;;;;;;;;5053789;28;20052;-58
2023/10/15 08:14:16;;;;;;;4.85;1.73;;;;;;;;;;5052961;28;20025;-58
2023/10/15 08:16:42;;;;;;;3.55;1.60;;;;;;;;;;5053009;28;20111;-58
2023/10/15 08:19:08;;;;;;;5.47;1.42;;;;;;;;;;5053404;28;20035;-58
2023/10/15 08:21:34;;;;;;;3.70;1.35;;;;;;;;;;5053511;28;20025;-58
2023/10/15 08:24:00;;;;;;;1.70;0.82;;;;;;;;;;5053182;28;20029;-58
2023/10/15 08:26:26;;;;;;;5.93;1.40;;;;;;;;;;5052890;28;20071;-58
2023/10/15 08:28:52;;;;;;;2.58;1.05;;;;;;;;;;5053359;28;20027;-58
2023/10/15 08:31:18;;;;;;;2.40;1.30;;;;;;;;;;5053182;28;20369;-58
2023/10/15 08:33:44;;;;;;;2.80;1.05;;;;;;;;;;5053211;28;20485;-58
2023/10/15 08:36:10;;;;;;;2.38;1.17;;;;;;;;;;5052784;28;20025;-58
2023/10/15 08:38:36;;;;;;;3.55;2.47;;;;;;;;;;5053145;28;20083;-58
2023/10/15 08:41:04;;;;;;;3.35;1.00;;;;;;;;;;5053257;28;20086;-58
2023/10/15 08:43:32;;;;;;;3.50;1.42;;;;;;;;;;5055071;28;20459;-58
2023/10/15 08:46:01;;;;;;;4.68;1.13;;;;;;;;;;5056879;28;20025;-58
2023/10/15 08:48:29;;;;;;;2.88;1.20;;;;;;;;;;5056887;28;20036;-58
2023/10/15 08:50:56;;;;;;;3.63;1.10;;;;;;;;;;5056597;28;20033;-58
2023/10/15 08:53:24;;;;;;;3.28;1.25;;;;;;;;;;5055807;28;20029;-58
2023/10/15 08:55:50;;;;;;;2.53;1.40;;;;;;;;;;5056617;28;20021;-58
2023/10/15 08:58:18;;;;;;;2.00;1.13;;;;;;;;;;5056076;28;20029;-58
2023/10/15 09:00:44;;;;;;;4.40;0.98;;;;;;;;;;5056147;28;20041;-58
2023/10/15 09:03:13;;;;;;;4.15;1.30;;;;;;;;;;5056735;28;20033;-58
2023/10/15 09:05:43;;;;;;;3.38;0.77;;;;;;;;;;5055870;28;20025;-58
2023/10/15 09:08:13;;;;;;;5.30;1.63;;;;;;;;;;5055912;28;20028;-58
2023/10/15 09:10:40;;;;;;;2.38;1.33;;;;;;;;;;5056391;28;20029;-58
2023/10/15 09:13:14;;;;;;;4.45;1.55;;;;;;;;;;5056433;28;20455;-58
2023/10/15 09:15:40;;;;;;;3.50;1.20;;;;;;;;;;5056316;28;20410;-58
2023/10/15 09:18:06;;;;;;;10.05;1.42;;;;;;;;;;5055706;28;20078;-58
2023/10/15 09:20:35;;;;;;;3.05;0.88;;;;;;;;;;5055931;28;20110;-58
2023/10/15 09:23:01;;;;;;;1.60;0.85;;;;;;;;;;5056018;28;20033;-57
2023/10/15 09:25:27;;;;;;;1.63;0.45;;;;;;;;;;5056307;28;20036;-58
2023/10/15 09:27:54;;;;;;;2.13;0.85;;;;;;;;;;5055967;28;20032;-58
2023/10/15 09:30:27;;;;;;;0.60;0.40;;;;;;;;;;5055365;28;20033;-58
2023/10/15 09:32:54;;;;;;;1.42;0.38;;;;;;;;;;5055194;28;20036;-58
2023/10/15 09:35:20;;;;;;;1.98;0.85;;;;;;;;;;5054864;28;20068;-58
2023/10/15 09:37:46;;;;;;;2.25;0.40;;;;;;;;;;5055717;28;20021;-58
2023/10/15 09:40:19;;;;;;;1.88;0.40;;;;;;;;;;5055145;28;20463;-58
2023/10/15 09:42:49;;;;;;;0.95;0.60;;;;;;;;;;5055556;28;20029;-58
2023/10/15 09:45:18;;;;;;;1.90;0.93;;;;;;;;;;5055092;28;20036;-58
2023/10/15 09:47:48;;;;;;;1.77;0.80;;;;;;;;;;5055095;28;20467;-58
2023/10/15 09:50:19;;;;;;;2.13;0.98;;;;;;;;;;5055732;28;20037;-58
2023/10/15 09:52:54;;;;;;;2.95;1.13;;;;;;;;;;5055520;28;20029;-58
2023/10/15 09:55:23;;;;;;;2.80;1.27;;;;;;;;;;5054314;28;20033;-58
2023/10/15 09:57:50;;;;;;;4.93;1.45;;;;;;;;;;5055505;28;20040;-58
2023/10/15 10:00:20;;;;;;;4.75;1.73;;;;;;;;;;5055298;28;20380;-58
2023/10/15 10:02:51;;;;;;;5.72;1.75;;;;;;;;;;5055086;28;20036;-58
2023/10/15 10:05:30;;;;;;;4.90;1.65;;;;;;;;;;5054901;28;20029;-58
2023/10/15 10:08:19;;;;;;;2.55;1.40;;;;;;;;;;5055384;28;20112;-58
2023/10/15 10:10:52;;;;;;;2.50;1.17;;;;;;;;;;5054980;28;20371;-58
2023/10/15 10:13:29;;;;;;;1.95;1.20;;;;;;;;;;5054527;28;20471;-58
2023/10/15 10:15:57;;;;;;;1.63;0.88;;;;;;;;;;5054439;28;20044;-58
2023/10/15 10:18:24;;;;;;;3.95;1.65;;;;;;;;;;5054509;28;20098;-57
2023/10/15 10:20:50;;;;;;;4.32;0.82;;;;;;;;;;5054436;28;20041;-58
2023/10/15 10:23:17;;;;;;;5.35;1.20;;;;;;;;;;5054490;28;20123;-58
2023/10/15 10:25:45;;;;;;;1.95;1.02;;;;;;;;;;5054873;28;20032;-58
2023/10/15 10:28:19;;;;;;;5.78;1.08;;;;;;;;;;5054295;28;20040;-58
2023/10/15 10:30:58;;;;;;;1.88;0.73;;;;;;;;;;5054683;28;20033;-58
2023/10/15 10:33:43;;;;;;;6.25;0.85;;;;;;;;;;5054276;28;20108;-58
2023/10/15 10:36:25;;;;;;;0.63;0.30;;;;;;;;;;5055031;28;20036;-58
2023/10/15 10:39:15;;;;;;;1.33;0.55;;;;;;;;;;5054070;28;20047;-58
2023/10/15 10:41:42;;;;;;;3.17;1.13;;;;;;;;;;5054852;28;20029;-58
2023/10/15 10:44:09;;;;;;;1.92;0.98;;;;;;;;;;5054940;28;20024;-58
2023/10/15 10:46:44;;;;;;;1.98;0.57;;;;;;;;;;5053981;28;20104;-58
2023/10/15 10:49:16;;;;;;;2.20;0.43;;;;;;;;;;5054220;28;20025;-58
2023/10/15 10:51:43;;;;;;;1.08;0.47;;;;;;;;;;5053777;28;20032;-58
2023/10/15 10:54:08;;;;;;;2.58;0.80;;;;;;;;;;5053785;28;20167;-58
2023/10/15 10:56:40;;;;;;;1.13;0.47;;;;;;;;;;5053739;28;20079;-58
2023/10/15 10:59:10;;;;;;;2.67;0.70;;;;;;;;;;5053918;28;20073;-58
2023/10/15 11:01:40;;;;;;;2.60;0.50;;;;;;;;;;5053937;28;20102;-58
2023/10/15 11:04:09;;;;;;;1.27;0.63;;;;;;;;;;5053974;28;20519;-58
2023/10/15 11:06:45;;;;;;;4.35;1.15;;;;;;;;;;5052850;28;20087;-58
2023/10/15 11:09:15;;;;;;;1.85;0.47;;;;;;;;;;5054271;28;20036;-57
2023/10/15 11:12:04;;;;;;;2.90;0.60;;;;;;;;;;5054322;28;20076;-57
2023/10/15 11:14:30;;;;;;;1.92;0.38;;;;;;;;;;5054161;28;20074;-59
2023/10/15 11:16:56;;;;;;;1.00;0.40;;;;;;;;;;5053660;28;20459;-59
2023/10/15 11:19:28;;;;;;;1.02;0.32;;;;;;;;;;5053375;28;20036;-57
2023/10/15 11:21:54;;;;;;;1.40;0.40;;;;;;;;;;5053543;28;20021;-57
2023/10/15 11:24:23;;;;;;;1.77;0.52;;;;;;;;;;5054158;28;20036;-60
2023/10/15 11:26:49;;;;;;;1.85;0.55;;;;;;;;;;5053434;28;20029;-59
2023/10/15 11:29:18;;;;;;;0.93;0.47;;;;;;;;;;5053367;28;20029;-57
2023/10/15 11:31:46;;;;;;;1.17;0.63;;;;;;;;;;5053443;28;20025;-58
2023/10/15 11:34:13;;;;;;;1.63;0.60;;;;;;;;;;5053497;28;20057;-58
2023/10/15 11:36:39;;;;;;;0.80;0.40;;;;;;;;;;5053322;28;20025;-58
2023/10/15 11:39:09;;;;;;;1.88;0.50;;;;;;;;;;5053879;28;20037;-58
2023/10/15 11:41:39;;;;;;;2.45;0.60;;;;;;;;;;5054107;28;20466;-58
2023/10/15 11:44:08;;;;;;;1.08;0.60;;;;;;;;;;5053135;28;20494;-58
2023/10/15 11:46:37;;;;;;;0.93;0.57;;;;;;;;;;5054041;28;20400;-58
2023/10/15 11:49:03;;;;;;;3.80;0.65;;;;;;;;;;5053159;28;20463;-58
2023/10/15 11:51:30;;;;;;;0.57;0.30;;;;;;;;;;5053835;28;20025;-58
2023/10/15 11:53:57;;;;;;;1.58;0.38;;;;;;;;;;5053918;28;20041;-58
2023/10/15 11:56:26;;;;;;;1.33;0.52;;;;;;;;;;5053131;28;20033;-58
2023/10/15 11:58:52;;;;;;;1.40;0.40;;;;;;;;;;5053187;28;20490;-58
2023/10/15 12:01:18;;;;;;;3.30;0.70;;;;;;;;;;5053145;28;20044;-57
2023/10/15 12:03:44;;;;;;;2.15;0.93;;;;;;;;;;5053564;28;20052;-58
2023/10/15 12:06:10;;;;;;;1.83;0.47;;;;;;;;;;5053403;28;20060;-58
2023/10/15 12:08:36;;;;;;;2.15;0.38;;;;;;;;;;5053512;28;20033;-58
2023/10/15 12:11:02;;;;;;;1.15;0.45;;;;;;;;;;5053507;28;20029;-58
2023/10/15 12:13:29;;;;;;;3.40;0.57;;;;;;;;;;5052837;28;20124;-57
2023/10/15 12:15:55;;;;;;;0.47;0.28;;;;;;;;;;5052872;28;20053;-58
2023/10/15 12:18:21;;;;;;;1.40;0.57;;;;;;;;;;5055311;28;20063;-58
2023/10/15 12:20:47;;;;;;;2.67;0.77;;;;;;;;;;5056700;28;20058;-58
2023/10/15 12:23:13;;;;;;;7.25;1.30;;;;;;;;;;5056400;28;20502;-58
2023/10/15 12:25:39;;;;;;;2.08;0.60;;;;;;;;;;5056464;28;20025;-58
2023/10/15 12:28:05;;;;;;;2.78;0.90;;;;;;;;;;5056754;28;20101;-58
2023/10/15 12:30:32;;;;;;;1.20;0.68;;;;;;;;;;5056774;28;20025;-58
2023/10/15 12:32:58;;;;;;;1.27;0.70;;;;;;;;;;5057158;28;20125;-58
2023/10/15 12:35:24;;;;;;;0.93;0.50;;;;;;;;;;5055856;28;20130;-58
2023/10/15 12:38:03;;;;;;;1.35;0.55;;;;;;;;;;5056966;28;20367;-58
2023/10/15 12:40:38;;;;;;;2.30;1.02;;;;;;;;;;5056775;28;20367;-58
2023/10/15 12:43:11;;;;;;;1.50;0.82;;;;;;;;;;5056845;28;20047;-58
2023/10/15 12:45:37;;;;;;;2.08;0.80;;;;;;;;;;5056028;28;20029;-58
2023/10/15 12:48:04;;;;;;;1.08;0.40;;;;;;;;;;5056463;28;20029;-58
2023/10/15 12:50:31;;;;;;;5.53;0.75;;;;;;;;;;5056115;28;20033;-58
2023/10/15 12:52:58;;;;;;;1.63;0.68;;;;;;;;;;5056181;28;20047;-58
2023/10/15 12:55:24;;;;;;;1.42;0.57;;;;;;;;;;5056582;28;20367;-58
2023/10/15 12:57:50;;;;;;;1.80;0.70;;;;;;;;;;5055747;28;20297;-58
2023/10/15 13:00:21;;;;;;;4.88;0.93;;;;;;;;;;5056088;28;20056;-58
2023/10/15 13:02:50;;;;;;;;;;;;;;;;;;5056607;28;20048;-58
2023/10/15 13:05:22;;;;;;;1.90;0.75;;;;;;;;;;5056377;28;19904;-58
2023/10/15 13:07:49;;;;;;;1.42;0.68;;;;;;;;;;5056401;28;20119;-58
2023/10/15 13:10:17;;;;;;;2.15;0.80;;;;;;;;;;5055768;28;20021;-58
2023/10/15 13:12:43;;;;;;;1.05;0.50;;;;;;;;;;5055420;28;20371;-58
2023/10/15 13:15:17;;;;;;;0.38;0.20;;;;;;;;;;5056108;28;20095;-58
2023/10/15 13:17:43;;;;;;;1.20;0.45;;;;;;;;;;5056061;28;20029;-58
2023/10/15 13:20:13;;;;;;;1.63;0.70;;;;;;;;;;5055364;28;20043;-58
2023/10/15 13:22:40;;;;;;;0.93;0.52;;;;;;;;;;5056203;28;20197;-58
2023/10/15 13:25:06;;;;;;;0.65;0.30;;;;;;;;;;5055182;28;20032;-58
2023/10/15 13:27:33;;;;;;;1.90;0.63;;;;;;;;;;5055760;28;20049;-58
2023/10/15 13:30:00;;;;;;;1.70;0.73;;;;;;;;;;5055103;28;20363;-58
2023/10/15 13:32:26;;;;;;;1.50;0.43;;;;;;;;;;5055188;28;20056;-58
2023/10/15 13:34:52;;;;;;;2.50;0.55;;;;;;;;;;5055100;28;20482;-58
2023/10/15 13:37:18;;;;;;;1.88;0.77;;;;;;;;;;5055004;28;20422;-58
2023/10/15 13:39:44;;;;;;;2.88;0.40;;;;;;;;;;5055384;28;20029;-58
2023/10/15 13:42:11;;;;;;;2.15;0.65;;;;;;;;;;5054831;28;20075;-58
2023/10/15 13:44:38;;;;;;;3.05;0.70;;;;;;;;;;5055419;28;20119;-58
2023/10/15 13:47:05;;;;;;;2.35;1.00;;;;;;;;;;5055082;28;20486;-58
2023/10/15 13:49:31;;;;;;;3.17;0.50;;;;;;;;;;5056057;28;20417;-58
2023/10/15 13:51:58;;;;;;;2.55;1.00;;;;;;;;;;5054397;28;20477;-58
2023/10/15 13:54:24;;;;;;;1.05;0.40;;;;;;;;;;5055171;28;20059;-58
2023/10/15 13:56:50;;;;;;;1.90;0.75;;;;;;;;;;5054549;28;20070;-58
2023/10/15 13:59:16;;;;;;;1.75;0.55;;;;;;;;;;5055047;28;20029;-58
2023/10/15 14:01:42;;;;;;;1.15;0.32;;;;;;;;;;5054607;28;20398;-58
2023/10/15 14:04:08;;;;;;;1.02;0.50;;;;;;;;;;5054605;28;20032;-58
2023/10/15 14:06:34;;;;;;;4.63;1.13;;;;;;;;;;5054530;28;20036;-58
2023/10/15 14:09:00;;;;;;;1.13;0.50;;;;;;;;;;5054258;28;20032;-58
2023/10/15 14:11:27;;;;;;;1.23;0.63;;;;;;;;;;5054847;28;20025;-58
2023/10/15 14:13:54;;;;;;;1.55;0.65;;;;;;;;;;5054057;28;20021;-58
2023/10/15 14:16:20;;;;;;;2.03;0.85;;;;;;;;;;5054870;28;20033;-58
2023/10/15 14:18:47;;;;;;;2.38;0.60;;;;;;;;;;5054398;28;20017;-58
2023/10/15 14:21:15;;;;;;;0.85;0.45;;;;;;;;;;5054510;28;20041;-58
2023/10/15 14:23:42;;;;;;;1.73;0.57;;;;;;;;;;5054443;28;20414;-58
2023/10/15 14:26:09;;;;;;;0.75;0.30;;;;;;;;;;5054092;28;20031;-58
2023/10/15 14:28:35;;;;;;;1.98;0.65;;;;;;;;;;5054131;28;20036;-58
2023/10/15 14:31:01;;;;;;;2.15;0.57;;;;;;;;;;5054635;28;20116;-58
2023/10/15 14:33:27;;;;;;;2.30;0.50;;;;;;;;;;5053909;28;20160;-58
2023/10/15 14:35:54;;;;;;;4.10;0.60;;;;;;;;;;5055017;28;20102;-58
2023/10/15 14:38:19;;;;;;;1.40;0.57;;;;;;;;;;5054182;28;20114;-58
2023/10/15 14:40:45;;;;;;;1.08;0.50;;;;;;;;;;5054247;28;20072;-58
2023/10/15 14:43:14;;;;;;;1.25;0.63;;;;;;;;;;5054023;28;20078;-58
2023/10/15 14:45:41;;;;;;;1.40;0.50;;;;;;;;;;5053951;28;20027;-58
2023/10/15 14:48:08;;;;;;;1.65;0.40;;;;;;;;;;5053931;28;20029;-58
2023/10/15 14:50:34;;;;;;;1.40;0.52;;;;;;;;;;5054490;28;20399;-58
2023/10/15 14:53:00;;;;;;;2.00;1.10;;;;;;;;;;5053924;28;20033;-58
2023/10/15 14:55:26;;;;;;;1.17;0.50;;;;;;;;;;5053246;28;20482;-58
2023/10/15 14:57:52;;;;;;;1.75;0.60;;;;;;;;;;5053711;28;20462;-58
2023/10/15 15:00:18;;;;;;;2.80;0.55;;;;;;;;;;5053269;28;20065;-58
2023/10/15 15:02:44;;;;;;;0.80;0.35;;;;;;;;;;5054105;28;20029;-58